JKR weather

Public forecast

Using degrees Celsius for public forecast. Weather courtesy of forecast.io.

Closest aviation weather report (METAR) to Janakpur Airport

Closest report is Tribhuvan International Airport, 66.5 nm (123.2 km) NNW. Retrieved 2020/08/09 02:20 UTC (25 minutes ago):

VNKT 090220Z 09003KT 070V130 4500 -RA FEW008 FEW025CB SCT030 OVC090 22/22 Q1010 NOSIG CB TO SE S SW W AND NW

Closest aviation forecast (TAF) to Janakpur Airport

Closest forecast is Tribhuvan International Airport, 66.5 nm (123.2 km) NNW. Retrieved 2020-08-09 00:12 UTC (3 hours ago):

TAF TAF VNKT 082300Z 0900/0924 VRB02KT 5000 -RA FEW010 SCT025 BKN100 BECMG 0904/0905 11004KT 7000 FEW010 SCT025 BKN100 BECMG 0907/0910 25008KT 8000 FEW015 SCT030 BKN100 PROB40 0906/0912 24010KT 4000 -TSRA/-SHRA FEW025CB SCT030 OVC100 BECMG 0913/0915 24004KT 5000 -RA FEW010 SCT025 BKN100